Time;durP1;ratioP1;P1;durP2;ratioP2;P2;SDS_P1;SDS_P2;PMS_P1;PMS_P2;Temp;Humidity;BMP_temperature;BMP_pressure;BME280_temperature;BME280_humidity;BME280_pressure;Samples;Min_cycle;Max_cycle;Signal;HPM_P1;HPM_P2
2021/10/05 00:01:56;;;;;;;33.88;21.50;;;;;;;13.20;83.23;100994.55;1707865;79;25842;-81
2021/10/05 00:04:23;;;;;;;40.45;21.90;;;;;;;13.20;83.38;100990.52;1768315;79;27590;-82
2021/10/05 00:06:50;;;;;;;34.15;22.62;;;;;;;13.16;83.31;100991.42;1774710;80;25858;-81
2021/10/05 00:09:17;;;;;;;33.00;21.15;;;;;;;13.14;83.32;100987.59;1771377;79;26046;-81
2021/10/05 00:11:44;;;;;;;34.03;21.60;;;;;;;13.13;83.43;100982.38;1732759;79;26518;-81
2021/10/05 00:14:11;;;;;;;33.40;21.12;;;;;;;13.10;83.45;100989.01;1714855;79;25908;-81
2021/10/05 00:16:38;;;;;;;33.95;20.32;;;;;;;13.07;83.47;100979.13;1770940;79;27597;-81
2021/10/05 00:19:05;;;;;;;30.48;20.10;;;;;;;13.05;83.48;100987.91;1790284;79;25953;-82
2021/10/05 00:21:32;;;;;;;33.30;20.65;;;;;;;13.04;83.49;100988.41;1721233;80;26559;-81
2021/10/05 00:23:59;;;;;;;32.90;20.80;;;;;;;13.02;83.82;100987.74;1744593;79;25905;-81
2021/10/05 00:26:26;;;;;;;33.88;20.72;;;;;;;13.01;83.73;100985.25;1766554;79;25810;-81
2021/10/05 00:28:53;;;;;;;31.80;20.15;;;;;;;12.97;83.67;100979.95;1786392;79;28210;-82
2021/10/05 00:31:20;;;;;;;30.85;20.32;;;;;;;12.94;83.68;100985.19;1767369;79;26549;-82
2021/10/05 00:33:47;;;;;;;32.45;20.27;;;;;;;12.93;83.81;100984.05;1745275;79;25832;-81
2021/10/05 00:36:14;;;;;;;33.55;21.00;;;;;;;12.87;83.72;100990.20;1753297;79;25921;-81
2021/10/05 00:38:41;;;;;;;32.50;20.70;;;;;;;12.83;84.02;100976.83;1769156;80;26034;-82
2021/10/05 00:41:08;;;;;;;34.55;21.37;;;;;;;12.80;84.07;100979.37;1724980;80;27326;-81
2021/10/05 00:43:35;;;;;;;30.95;22.00;;;;;;;12.78;83.98;100978.74;1745598;79;26321;-82
2021/10/05 00:46:02;;;;;;;30.57;20.17;;;;;;;12.77;84.08;100979.75;1772673;79;25784;-81
2021/10/05 00:48:29;;;;;;;38.85;20.40;;;;;;;12.75;84.05;100975.08;1790269;78;26897;-81
2021/10/05 00:50:56;;;;;;;29.70;19.80;;;;;;;12.73;84.08;100971.75;1725257;79;25821;-81
2021/10/05 00:53:23;;;;;;;33.05;20.45;;;;;;;12.72;84.15;100980.86;1717184;78;28530;-81
2021/10/05 00:55:51;;;;;;;41.92;21.10;;;;;;;12.70;84.19;100982.06;1769511;79;25784;-81
2021/10/05 00:58:18;;;;;;;30.05;21.05;;;;;;;12.68;84.22;100982.23;1793397;79;25943;-81
2021/10/05 01:00:46;;;;;;;35.88;21.50;;;;;;;12.67;84.59;100978.41;1721541;81;25976;-81
2021/10/05 01:03:13;;;;;;;33.45;21.35;;;;;;;12.65;84.27;100979.95;1739073;79;25983;-81
2021/10/05 01:05:40;;;;;;;36.15;20.45;;;;;;;12.65;84.26;100975.08;1768640;79;27459;-81
2021/10/05 01:08:07;;;;;;;32.42;20.10;;;;;;;12.64;84.32;100973.43;1791433;79;26532;-81
2021/10/05 01:10:34;;;;;;;34.05;19.95;;;;;;;12.62;84.34;100962.01;1766254;79;25949;-82
2021/10/05 01:13:01;;;;;;;34.03;21.17;;;;;;;12.60;84.32;100966.23;1743720;79;25953;-81
2021/10/05 01:15:29;;;;;;;32.58;20.27;;;;;;;12.59;84.31;100969.97;1767057;79;25854;-81
2021/10/05 01:17:56;;;;;;;34.88;20.25;;;;;;;12.56;84.34;100968.99;1778253;79;27642;-81
2021/10/05 01:20:24;;;;;;;33.67;20.72;;;;;;;12.56;84.39;100970.84;1719125;81;25750;-82
2021/10/05 01:22:51;;;;;;;34.20;21.23;;;;;;;12.53;84.53;100968.55;1701954;82;25927;-82
2021/10/05 01:25:19;;;;;;;34.35;21.17;;;;;;;12.50;84.53;100968.92;1699112;80;25894;-81
2021/10/05 01:27:52;;;;;;;36.30;20.88;;;;;;;12.46;84.47;100973.84;1763757;80;25854;-81
2021/10/05 01:30:22;;;;;;;36.33;20.77;;;;;;;12.44;84.57;100970.52;1680949;80;27375;-81
2021/10/05 01:32:49;;;;;;;32.85;19.90;;;;;;;12.44;84.71;100966.49;1773408;79;25825;-81
2021/10/05 01:35:18;;;;;;;32.55;19.98;;;;;;;12.40;84.57;100967.36;1699335;80;25851;-81
2021/10/05 01:37:45;;;;;;;35.17;20.27;;;;;;;12.38;84.61;100962.69;1762103;80;26592;-82
2021/10/05 01:40:13;;;;;;;36.08;20.80;;;;;;;12.35;84.63;100963.09;1675368;80;25682;-82
2021/10/05 01:42:40;;;;;;;41.25;21.35;;;;;;;12.36;84.74;100962.55;1733408;80;27533;-81
2021/10/05 01:45:08;;;;;;;32.67;21.15;;;;;;;12.33;84.77;100958.42;1709992;80;26501;-81
2021/10/05 01:47:35;;;;;;;41.48;21.62;;;;;;;12.34;84.90;100965.94;1762606;80;25796;-81
2021/10/05 01:50:03;;;;;;;30.05;20.15;;;;;;;12.29;84.83;100957.13;1733255;80;25839;-81
2021/10/05 01:52:31;;;;;;;30.12;20.65;;;;;;;12.28;84.79;100966.20;1763511;80;25872;-81
2021/10/05 01:54:58;;;;;;;32.98;20.20;;;;;;;12.28;84.94;100961.33;1729174;80;27349;-81
2021/10/05 01:57:25;;;;;;;33.75;20.70;;;;;;;12.27;84.98;100959.14;1730079;80;26142;-81
2021/10/05 01:59:52;;;;;;;29.48;21.02;;;;;;;12.24;85.14;100952.83;1766193;79;25760;-81
2021/10/05 02:02:19;;;;;;;32.67;20.92;;;;;;;12.22;85.13;100948.16;1768053;80;25700;-82
2021/10/05 02:04:47;;;;;;;34.78;20.57;;;;;;;12.23;85.21;100957.05;1695197;80;26286;-81
2021/10/05 02:07:14;;;;;;;37.98;22.07;;;;;;;12.20;85.31;100952.89;1722269;81;27520;-81
2021/10/05 02:09:47;;;;;;;43.33;22.45;;;;;;;12.19;85.40;100948.52;1783645;79;25374;-81
2021/10/05 02:12:10;;;;;;;30.97;21.12;;;;;;;12.16;85.29;100953.45;1766694;79;25849;-81
2021/10/05 02:14:37;;;;;;;37.03;21.27;;;;;;;12.13;85.33;100953.31;1702010;80;25893;-81
2021/10/05 02:17:04;;;;;;;32.85;20.37;;;;;;;12.12;85.45;100953.51;1706721;81;25362;-81
2021/10/05 02:19:31;;;;;;;30.92;20.72;;;;;;;12.13;85.46;100957.84;1772708;79;28322;-81
2021/10/05 02:21:58;;;;;;;34.73;20.45;;;;;;;12.12;85.43;100960.22;1748597;81;25890;-81
2021/10/05 02:26:54;;;;;;;39.13;21.20;;;;;;;12.12;85.46;100961.06;1670859;82;25842;-81
2021/10/05 02:29:21;;;;;;;41.92;21.00;;;;;;;12.11;85.47;100958.54;1688747;81;25824;-81
2021/10/05 02:31:49;;;;;;;38.38;21.42;;;;;;;12.10;85.41;100959.05;1737660;81;28172;-81
2021/10/05 02:34:17;;;;;;;35.05;21.00;;;;;;;12.11;85.47;100955.85;1708342;82;25872;-81
2021/10/05 02:36:44;;;;;;;36.83;22.07;;;;;;;12.07;85.47;100952.72;1713050;82;25901;-81
2021/10/05 02:39:12;;;;;;;38.25;21.82;;;;;;;12.05;85.65;100952.08;1717390;81;26562;-81
2021/10/05 02:41:40;;;;;;;39.73;19.92;;;;;;;12.01;85.69;100955.33;1720328;81;25550;-81
2021/10/05 02:44:07;;;;;;;32.28;21.90;;;;;;;11.99;85.75;100950.16;1735909;81;27455;-81
2021/10/05 02:46:34;;;;;;;34.50;21.48;;;;;;;12.01;85.74;100951.30;1694384;82;25384;-81
2021/10/05 02:49:01;;;;;;;34.60;22.17;;;;;;;12.01;85.74;100955.33;1659386;83;25933;-82
2021/10/05 02:51:29;;;;;;;31.82;19.82;;;;;;;11.99;85.65;100963.58;1669436;82;25927;-81
2021/10/05 02:53:57;;;;;;;31.73;20.20;;;;;;;11.99;85.72;100966.77;1738742;81;25822;-82
2021/10/05 02:56:24;;;;;;;33.55;20.30;;;;;;;11.98;85.78;100961.89;1747268;81;27447;-82
2021/10/05 02:58:51;;;;;;;32.70;21.45;;;;;;;11.99;85.82;100965.42;1648702;85;26544;-81
2021/10/05 03:01:18;;;;;;;29.82;20.75;;;;;;;11.96;85.84;100959.06;1693169;81;26610;-81
2021/10/05 03:03:45;;;;;;;35.92;21.25;;;;;;;11.97;85.84;100955.37;1739226;81;25819;-82
2021/10/05 03:06:13;;;;;;;36.77;20.37;;;;;;;11.97;85.90;100955.37;1717620;82;25775;-81
2021/10/05 03:08:42;;;;;;;36.10;20.25;;;;;;;11.94;86.07;100949.87;1710041;81;28169;-80
2021/10/05 03:11:11;;;;;;;33.10;22.05;;;;;;;11.93;86.02;100944.70;1719925;81;25344;-81
2021/10/05 03:13:40;;;;;;;34.20;21.02;;;;;;;11.93;86.05;100944.70;1717948;81;25912;-81
2021/10/05 03:16:08;;;;;;;31.02;20.35;;;;;;;11.92;86.12;100951.91;1706671;81;26451;-81
2021/10/05 03:18:35;;;;;;;35.70;22.42;;;;;;;11.93;86.12;100950.06;1733227;81;25861;-82
2021/10/05 03:21:03;;;;;;;31.23;20.68;;;;;;;11.91;86.25;100944.05;1734151;81;27404;-82
2021/10/05 03:23:30;;;;;;;32.08;21.80;;;;;;;11.89;86.24;100951.46;1716440;81;26556;-81
2021/10/05 03:25:57;;;;;;;39.13;22.20;;;;;;;11.90;86.38;100951.77;1689996;83;25933;-81
2021/10/05 03:28:24;;;;;;;43.40;24.82;;;;;;;11.90;86.40;100951.27;1655367;83;25947;-82
2021/10/05 03:30:50;;;;;;;33.50;21.60;;;;;;;11.92;86.43;100947.04;1709850;81;25778;-81
2021/10/05 03:33:17;;;;;;;34.40;21.68;;;;;;;11.93;86.49;100937.98;1711622;82;27503;-81
2021/10/05 03:35:45;;;;;;;41.45;22.50;;;;;;;11.93;86.42;100942.82;1711784;82;26074;-81
2021/10/05 03:38:12;;;;;;;34.65;21.97;;;;;;;11.95;86.41;100944.84;1691862;81;25394;-81
2021/10/05 03:40:39;;;;;;;34.30;22.13;;;;;;;11.96;86.31;100946.48;1687716;81;25900;-81
2021/10/05 03:43:06;;;;;;;34.38;22.17;;;;;;;11.93;86.26;100941.48;1741801;81;26648;-81
2021/10/05 03:45:33;;;;;;;34.45;21.77;;;;;;;11.91;86.32;100936.00;1694321;81;27634;-81
2021/10/05 03:48:00;;;;;;;34.27;23.35;;;;;;;11.89;86.30;100929.45;1717203;81;25918;-81
2021/10/05 03:50:27;;;;;;;32.80;22.73;;;;;;;11.88;86.23;100921.59;1693105;81;25703;-81
2021/10/05 03:52:54;;;;;;;36.38;22.77;;;;;;;11.86;86.26;100927.16;1737677;81;25905;-81
2021/10/05 03:55:21;;;;;;;37.60;21.42;;;;;;;11.83;86.21;100923.50;1714423;81;25343;-81
2021/10/05 03:57:48;;;;;;;38.67;22.40;;;;;;;11.83;86.18;100924.00;1718194;81;28212;-80
2021/10/05 04:00:15;;;;;;;31.60;21.10;;;;;;;11.80;86.30;100925.73;1690570;81;26005;-81
2021/10/05 04:02:43;;;;;;;34.43;22.25;;;;;;;11.78;86.28;100935.32;1718396;81;25967;-81
2021/10/05 04:05:10;;;;;;;31.82;21.90;;;;;;;11.79;86.26;100929.42;1712424;81;25763;-81
2021/10/05 04:07:37;;;;;;;36.40;21.87;;;;;;;11.79;86.21;100936.13;1718643;81;26571;-81
2021/10/05 04:10:06;;;;;;;38.75;22.50;;;;;;;11.78;86.19;100926.43;1681863;82;27428;-82
2021/10/05 04:12:34;;;;;;;34.10;22.58;;;;;;;11.76;86.13;100925.25;1739612;81;25896;-81
2021/10/05 04:15:02;;;;;;;34.63;20.88;;;;;;;11.72;86.25;100930.67;1737652;82;26679;-81
2021/10/05 04:17:29;;;;;;;34.43;21.80;;;;;;;11.71;86.26;100929.52;1716721;81;25850;-81
2021/10/05 04:19:57;;;;;;;35.23;22.60;;;;;;;11.69;86.27;100924.35;1690545;81;25930;-81
2021/10/05 04:22:24;;;;;;;39.23;22.60;;;;;;;11.70;86.25;100922.51;1743252;81;27465;-81
2021/10/05 04:24:51;;;;;;;32.55;20.35;;;;;;;11.68;86.24;100921.33;1722450;81;25841;-81
2021/10/05 04:27:18;;;;;;;40.83;24.37;;;;;;;11.65;86.23;100913.11;1691581;81;25837;-80
2021/10/05 04:29:45;;;;;;;38.13;23.12;;;;;;;11.60;86.36;100917.38;1684906;80;26589;-81
2021/10/05 04:32:13;;;;;;;35.98;23.50;;;;;;;11.59;86.47;100927.77;1765512;80;25776;-81
2021/10/05 04:34:40;;;;;;;43.87;23.42;;;;;;;11.56;86.49;100926.81;1751879;79;27452;-81
2021/10/05 04:37:07;;;;;;;38.38;24.57;;;;;;;11.54;86.55;100925.67;1753429;80;25952;-81
2021/10/05 04:39:34;;;;;;;36.28;21.77;;;;;;;11.54;86.61;100930.20;1687010;80;25786;-81
2021/10/05 04:42:02;;;;;;;35.70;23.10;;;;;;;11.54;86.60;100939.59;1776375;79;25885;-81
2021/10/05 04:44:29;;;;;;;36.17;23.47;;;;;;;11.50;86.67;100947.15;1770102;79;25805;-81
2021/10/05 04:46:56;;;;;;;41.25;22.93;;;;;;;11.49;86.74;100938.80;1696033;84;28130;-82
2021/10/05 04:49:23;;;;;;;36.90;20.95;;;;;;;11.51;86.69;100947.98;1728449;82;26621;-81
2021/10/05 04:51:50;;;;;;;43.25;23.90;;;;;;;11.49;86.73;100931.25;1742757;82;25960;-81
2021/10/05 04:54:18;;;;;;;35.83;20.92;;;;;;;11.49;86.72;100936.61;1731068;81;25760;-81
2021/10/05 04:56:45;;;;;;;36.93;23.75;;;;;;;11.47;86.69;100926.58;1670216;82;25905;-81
2021/10/05 04:59:12;;;;;;;38.20;22.22;;;;;;;11.44;86.72;100923.75;1713777;82;27421;-81
2021/10/05 05:01:40;;;;;;;35.78;22.48;;;;;;;11.43;86.79;100923.94;1734490;81;25925;-81
2021/10/05 05:04:09;;;;;;;38.00;24.43;;;;;;;11.42;86.74;100920.42;1753791;79;25880;-81
2021/10/05 05:06:37;;;;;;;36.53;22.25;;;;;;;11.40;86.99;100923.80;1690028;82;25871;-81
2021/10/05 05:09:05;;;;;;;35.08;21.77;;;;;;;11.39;86.91;100919.47;1700995;81;25862;-81
2021/10/05 05:11:32;;;;;;;38.05;22.48;;;;;;;11.42;86.98;100923.10;1751848;81;28219;-81
2021/10/05 05:14:07;;;;;;;37.93;21.60;;;;;;;11.39;87.09;100921.30;1744650;79;26002;-81
2021/10/05 05:16:37;;;;;;;33.80;22.05;;;;;;;11.40;87.14;100929.66;1694968;81;25913;-81
2021/10/05 05:19:05;;;;;;;37.00;22.98;;;;;;;11.43;87.25;100932.83;1693942;81;25691;-81
2021/10/05 05:21:33;;;;;;;32.25;21.85;;;;;;;11.46;87.23;100931.64;1753571;79;25835;-81
2021/10/05 05:24:00;;;;;;;36.80;22.15;;;;;;;11.48;87.27;100929.59;1766294;79;27450;-81
2021/10/05 05:26:27;;;;;;;36.48;25.02;;;;;;;11.51;87.25;100925.19;1749207;81;25847;-81
2021/10/05 05:28:55;;;;;;;37.85;23.62;;;;;;;11.52;87.49;100925.53;1688558;83;25832;-81
2021/10/05 05:31:22;;;;;;;34.70;22.90;;;;;;;11.51;87.53;100922.00;1702899;83;25896;-81
2021/10/05 05:33:49;;;;;;;40.35;23.22;;;;;;;11.53;87.45;100927.17;1684054;83;25905;-81
2021/10/05 05:36:16;;;;;;;42.08;23.65;;;;;;;11.56;87.52;100931.69;1665864;83;27539;-81
2021/10/05 05:38:43;;;;;;;33.50;22.15;;;;;;;11.61;87.58;100927.11;1684483;83;25914;-81
2021/10/05 05:41:10;;;;;;;34.25;22.07;;;;;;;11.64;87.57;100924.87;1703534;82;26661;-81
2021/10/05 05:43:37;;;;;;;30.88;20.45;;;;;;;11.65;87.40;100936.45;1673892;83;26425;-80
2021/10/05 05:46:04;;;;;;;33.10;21.68;;;;;;;11.66;87.32;100938.09;1666432;83;26065;-81
2021/10/05 05:48:31;;;;;;;35.23;21.60;;;;;;;11.70;87.31;100939.42;1654177;83;28081;-81
2021/10/05 05:50:58;;;;;;;35.92;21.15;;;;;;;11.73;87.33;100926.14;1710181;82;25992;-81
2021/10/05 05:53:25;;;;;;;35.25;21.00;;;;;;;11.75;87.16;100937.02;1655831;83;25828;-81
2021/10/05 05:55:52;;;;;;;32.85;21.48;;;;;;;11.75;87.15;100932.16;1661968;82;25869;-81
2021/10/05 05:58:20;;;;;;;34.60;19.85;;;;;;;11.76;87.20;100928.47;1663940;82;25387;-81
2021/10/05 06:00:47;;;;;;;38.38;21.82;;;;;;;11.78;87.13;100927.77;1711124;82;27550;-81
2021/10/05 06:03:15;;;;;;;35.70;20.97;;;;;;;11.78;87.29;100921.90;1680559;83;53498;-81
2021/10/05 06:05:42;;;;;;;29.48;19.02;;;;;;;11.79;87.21;100914.66;1641185;83;25899;-81
2021/10/05 06:08:09;;;;;;;35.95;20.88;;;;;;;11.81;87.30;100921.51;1694280;81;26451;-81
2021/10/05 06:10:37;;;;;;;34.43;20.72;;;;;;;11.84;87.40;100922.49;1697161;81;25870;-81
2021/10/05 06:13:04;;;;;;;33.58;19.25;;;;;;;11.87;87.37;100918.61;1700142;81;27372;-82
2021/10/05 06:15:34;;;;;;;32.10;20.55;;;;;;;11.91;87.29;100924.73;1772071;79;25847;-81
2021/10/05 06:18:01;;;;;;;33.55;20.40;;;;;;;11.94;87.47;100921.68;1674364;82;25991;-81
2021/10/05 06:20:29;;;;;;;32.48;19.30;;;;;;;11.96;87.39;100915.61;1641556;85;26659;-81
2021/10/05 06:22:57;;;;;;;30.48;20.12;;;;;;;12.00;87.62;100910.19;1679589;83;25841;-81
2021/10/05 06:25:28;;;;;;;37.05;19.73;;;;;;;12.04;87.42;100910.66;1678733;81;27393;-81
2021/10/05 06:27:57;;;;;;;30.02;20.35;;;;;;;12.06;87.28;100905.40;1718450;81;25942;-81
2021/10/05 06:30:26;;;;;;;31.62;19.62;;;;;;;12.11;87.32;100901.64;1738498;80;25778;-81
2021/10/05 06:32:53;;;;;;;35.13;21.57;;;;;;;12.16;87.11;100896.55;1743122;82;25882;-81
2021/10/05 06:35:24;;;;;;;26.73;17.62;;;;;;;12.21;87.18;100907.53;1762008;80;25369;-81
2021/10/05 06:37:54;;;;;;;;;;;;;;;12.26;86.89;100901.59;1733564;81;27511;-82
2021/10/05 06:40:23;;;;;;;28.70;17.90;;;;;;;12.32;86.80;100903.02;1733457;81;25817;-81
2021/10/05 06:42:50;;;;;;;29.37;18.50;;;;;;;12.37;86.81;100904.63;1749382;81;25694;-82
2021/10/05 06:45:18;;;;;;;31.75;18.82;;;;;;;12.41;86.42;100909.09;1714150;81;26020;-81
2021/10/05 06:47:46;;;;;;;29.30;17.80;;;;;;;12.46;86.30;100910.71;1735576;81;25940;-81
2021/10/05 06:50:14;;;;;;;29.27;17.80;;;;;;;12.53;86.22;100914.81;1744550;81;27481;-82
2021/10/05 06:52:42;;;;;;;29.40;18.92;;;;;;;12.60;86.24;100909.80;1778349;78;26616;-81
2021/10/05 06:55:10;;;;;;;34.23;19.15;;;;;;;12.70;86.30;100906.27;1705414;81;26087;-82
2021/10/05 06:57:37;;;;;;;32.33;19.57;;;;;;;12.84;86.41;100904.55;1720583;81;25919;-82
2021/10/05 07:00:13;;;;;;;28.77;17.65;;;;;;;12.98;85.94;100904.99;1779448;79;25905;-81
2021/10/05 07:02:35;;;;;;;28.27;18.25;;;;;;;13.08;85.35;100896.94;1746401;81;27543;-82
2021/10/05 07:05:03;;;;;;;32.30;19.00;;;;;;;13.17;85.09;100893.58;1746426;81;25884;-81
2021/10/05 07:07:30;;;;;;;25.02;18.00;;;;;;;13.27;84.70;100899.94;1718893;81;25913;-82
2021/10/05 07:09:57;;;;;;;32.50;18.92;;;;;;;13.31;84.48;100908.77;1743223;81;26819;-81
2021/10/05 07:12:24;;;;;;;31.80;18.23;;;;;;;13.35;83.74;100904.66;1748879;81;25838;-81
2021/10/05 07:14:51;;;;;;;33.98;17.25;;;;;;;13.37;83.66;100907.98;1749976;80;27351;-81
2021/10/05 07:17:18;;;;;;;29.57;17.45;;;;;;;13.37;83.18;100912.02;1717657;81;25804;-82
2021/10/05 07:19:45;;;;;;;33.02;18.95;;;;;;;13.39;83.23;100907.77;1777404;79;25832;-81
2021/10/05 07:22:12;;;;;;;29.57;18.98;;;;;;;13.42;83.39;100910.08;1743221;81;25994;-81
2021/10/05 07:24:39;;;;;;;32.20;18.30;;;;;;;13.46;83.19;100903.27;1746173;81;26366;-82
2021/10/05 07:27:06;;;;;;;31.07;18.17;;;;;;;13.50;82.73;100901.84;1737484;80;28318;-81
2021/10/05 07:29:33;;;;;;;27.25;18.37;;;;;;;13.51;82.51;100904.86;1746356;81;25863;-82
2021/10/05 07:32:00;;;;;;;29.87;18.52;;;;;;;13.55;82.62;100904.78;1731683;81;26602;-81
2021/10/05 07:34:27;;;;;;;27.50;17.32;;;;;;;13.55;82.58;100909.66;1748858;80;25853;-82
2021/10/05 07:36:54;;;;;;;25.60;16.35;;;;;;;13.57;82.71;100897.34;1670533;83;26072;-81
2021/10/05 07:39:21;;;;;;;29.75;17.52;;;;;;;13.62;82.84;100897.58;1723843;82;27575;-81
2021/10/05 07:41:48;;;;;;;29.77;17.87;;;;;;;13.69;82.92;100889.84;1715527;82;25867;-81
2021/10/05 07:44:16;;;;;;;27.95;17.05;;;;;;;13.74;82.61;100888.73;1682129;83;25959;-82
2021/10/05 07:46:43;;;;;;;28.52;16.23;;;;;;;13.76;81.97;100884.48;1724062;81;25810;-82
2021/10/05 07:49:10;;;;;;;29.90;16.32;;;;;;;13.81;82.32;100880.69;1724902;81;26620;-82
2021/10/05 07:51:37;;;;;;;23.40;16.57;;;;;;;13.91;82.35;100881.98;1715698;83;27519;-81
2021/10/05 07:54:05;;;;;;;27.95;16.32;;;;;;;14.04;82.09;100887.08;1682935;83;26249;-82
2021/10/05 07:56:33;;;;;;;22.13;16.20;;;;;;;14.09;81.41;100881.93;1699103;83;25595;-82
2021/10/05 07:59:00;;;;;;;30.50;15.83;;;;;;;14.18;81.62;100876.68;1746460;81;25923;-81
2021/10/05 08:01:27;;;;;;;20.00;15.72;;;;;;;14.30;81.91;100886.69;1739441;81;25851;-82
2021/10/05 08:03:54;;;;;;;23.45;15.18;;;;;;;14.44;82.31;100892.92;1684737;81;27486;-81
2021/10/05 08:06:21;;;;;;;24.18;14.65;;;;;;;14.56;81.37;100894.80;1738023;81;25899;-81
2021/10/05 08:08:48;;;;;;;22.85;15.32;;;;;;;14.66;81.01;100896.59;1704425;81;26076;-82
2021/10/05 08:11:16;;;;;;;21.70;14.98;;;;;;;14.75;78.86;100889.14;1740380;81;25812;-83
2021/10/05 08:13:43;;;;;;;23.55;14.98;;;;;;;14.84;80.13;100894.61;1703739;81;25803;-83
2021/10/05 08:16:10;;;;;;;25.57;14.13;;;;;;;14.95;80.02;100883.75;1692892;81;27466;-82
2021/10/05 08:18:37;;;;;;;25.02;14.43;;;;;;;15.06;79.52;100879.88;1742125;81;25907;-82
2021/10/05 08:21:04;;;;;;;20.75;13.22;;;;;;;15.17;79.86;100869.81;1761180;80;25827;-82
2021/10/05 08:23:31;;;;;;;24.87;14.10;;;;;;;15.27;79.54;100872.89;1726686;81;25957;-82
2021/10/05 08:25:58;;;;;;;26.97;14.33;;;;;;;15.34;78.13;100871.54;1697588;80;25830;-83
2021/10/05 08:28:25;;;;;;;16.95;12.88;;;;;;;15.41;78.50;100873.20;1777860;79;27551;-81
2021/10/05 08:30:53;;;;;;;24.63;13.70;;;;;;;15.47;78.10;100874.24;1768518;79;25962;-82
2021/10/05 08:33:20;;;;;;;29.95;14.87;;;;;;;15.51;77.73;100874.63;1734000;80;26000;-81
2021/10/05 08:35:47;;;;;;;21.73;14.45;;;;;;;15.59;77.77;100878.48;1695472;80;25862;-81
2021/10/05 08:38:14;;;;;;;21.82;12.88;;;;;;;15.63;77.14;100870.25;1779541;79;25781;-82
2021/10/05 08:40:41;;;;;;;22.48;12.55;;;;;;;15.65;76.92;100859.55;1731102;81;27526;-83
2021/10/05 08:43:08;;;;;;;20.97;13.03;;;;;;;15.70;76.60;100858.38;1703737;80;25850;-82
2021/10/05 08:45:35;;;;;;;21.48;12.98;;;;;;;15.73;76.64;100849.86;1756405;80;26003;-81
2021/10/05 08:48:02;;;;;;;18.82;12.25;;;;;;;15.80;76.44;100857.94;1733889;81;26106;-81
2021/10/05 08:50:29;;;;;;;19.82;12.43;;;;;;;15.87;76.74;100864.11;1765412;80;25934;-82
2021/10/05 08:52:56;;;;;;;19.20;11.45;;;;;;;15.94;75.89;100856.30;1727322;81;27495;-81
2021/10/05 08:55:23;;;;;;;19.87;11.93;;;;;;;16.01;76.54;100859.81;1687026;80;25905;-82
2021/10/05 08:57:50;;;;;;;19.73;12.00;;;;;;;16.09;76.08;100845.20;1767681;79;25360;-81
2021/10/05 09:00:17;;;;;;;19.60;11.63;;;;;;;16.16;74.65;100850.06;1762853;80;26525;-82
2021/10/05 09:02:52;;;;;;;17.17;11.00;;;;;;;16.21;75.23;100848.86;1727257;81;25884;-82
2021/10/05 09:05:20;;;;;;;17.85;11.38;;;;;;;16.27;74.85;100834.50;1728479;81;27558;-81
2021/10/05 09:07:52;;;;;;;24.02;10.55;;;;;;;16.34;74.65;100837.17;1730424;80;25971;-81
2021/10/05 09:10:23;;;;;;;21.85;11.18;;;;;;;16.40;74.51;100825.47;1758973;80;25725;-82
2021/10/05 09:12:51;;;;;;;27.67;12.07;;;;;;;16.46;74.95;100822.72;1674551;80;25973;-82
2021/10/05 09:15:20;;;;;;;20.17;11.73;;;;;;;16.55;74.82;100820.61;1731161;80;25999;-82
2021/10/05 09:17:58;;;;;;;18.23;10.90;;;;;;;16.63;73.56;100820.33;1771301;79;28237;-82
2021/10/05 09:20:29;;;;;;;23.45;12.13;;;;;;;16.67;73.25;100822.89;1758497;80;25776;-82
2021/10/05 09:23:07;;;;;;;17.75;10.20;;;;;;;16.70;72.25;100821.91;1715542;81;25408;-82
2021/10/05 09:25:47;;;;;;;18.70;10.28;;;;;;;16.74;72.96;100815.55;1765646;80;25795;-81
2021/10/05 09:28:22;;;;;;;16.80;10.48;;;;;;;16.82;72.94;100817.97;1738904;80;25868;-82
2021/10/05 09:31:03;;;;;;;15.83;9.28;;;;;;;16.89;73.09;100809.28;1726458;80;28304;-83
2021/10/05 09:33:30;;;;;;;;;;;;;;;16.98;73.15;100809.83;1757385;80;25832;-82
2021/10/05 09:35:57;;;;;;;20.43;10.32;;;;;;;17.05;71.92;100810.05;1711070;80;25847;-81
2021/10/05 09:38:27;;;;;;;19.90;9.85;;;;;;;17.09;72.53;100801.77;1730378;81;26164;-82
2021/10/05 09:41:08;;;;;;;14.13;9.30;;;;;;;17.16;72.32;100797.64;1763074;80;25736;-81
2021/10/05 09:43:36;;;;;;;;;;;;;;;17.24;71.28;100800.05;1771628;80;28284;-81
2021/10/05 09:46:17;;;;;;;16.52;9.43;;;;;;;17.30;70.78;100799.98;1731151;81;26000;-82
2021/10/05 09:48:45;;;;;;;14.18;8.78;;;;;;;17.35;71.29;100797.43;1722405;80;25814;-82
2021/10/05 09:51:19;;;;;;;17.12;9.40;;;;;;;17.46;71.92;100798.03;1765763;80;26506;-82
2021/10/05 09:53:45;;;;;;;14.65;9.60;;;;;;;17.55;72.60;100794.00;1778305;79;25890;-82
2021/10/05 09:56:13;;;;;;;12.58;8.80;;;;;;;17.67;71.90;100803.01;1709124;82;27530;-82
2021/10/05 09:58:40;;;;;;;17.92;10.18;;;;;;;17.75;71.36;100803.20;1679365;82;25906;-82
2021/10/05 10:01:08;;;;;;;24.77;10.90;;;;;;;17.78;70.71;100804.64;1725118;81;25831;-82
2021/10/05 10:03:37;;;;;;;21.15;9.80;;;;;;;17.81;69.03;100809.09;1771268;79;25804;-82
2021/10/05 10:06:06;;;;;;;17.10;10.13;;;;;;;17.84;69.61;100795.59;1651261;83;25822;-82
2021/10/05 10:08:36;;;;;;;17.77;10.78;;;;;;;17.87;70.00;100785.66;1657501;85;27370;-82
2021/10/05 10:11:03;;;;;;;17.32;9.80;;;;;;;17.94;69.85;100782.34;1697833;83;25790;-82
2021/10/05 10:13:30;;;;;;;17.55;9.85;;;;;;;18.00;69.39;100787.66;1747203;81;26163;-82
2021/10/05 10:15:59;;;;;;;12.82;9.58;;;;;;;18.04;68.82;100791.56;1716074;82;25967;-82
2021/10/05 10:18:26;;;;;;;13.50;8.50;;;;;;;18.09;69.58;100787.61;1669917;83;25858;-82
2021/10/05 10:21:11;;;;;;;16.42;9.05;;;;;;;18.17;69.26;100795.96;1743907;81;27520;-82
2021/10/05 10:23:39;;;;;;;16.52;9.30;;;;;;;18.20;69.13;100788.18;1726693;81;26046;-82
2021/10/05 10:26:12;;;;;;;15.75;9.13;;;;;;;18.24;68.73;100797.50;1709324;81;25902;-83
2021/10/05 10:28:42;;;;;;;15.90;8.15;;;;;;;18.29;66.61;100789.51;1716651;81;25660;-82
2021/10/05 10:31:17;;;;;;;18.80;8.40;;;;;;;18.34;68.60;100787.45;1742261;81;25315;-83
2021/10/05 10:33:53;;;;;;;13.40;8.65;;;;;;;18.40;67.12;100779.22;1705826;81;28105;-83
2021/10/05 10:36:41;;;;;;;18.07;9.43;;;;;;;18.46;67.84;100783.73;1710301;82;25884;-82
2021/10/05 10:39:27;;;;;;;13.32;8.10;;;;;;;18.50;67.87;100775.95;1704213;81;26042;-82
2021/10/05 10:41:59;;;;;;;22.20;9.80;;;;;;;18.57;66.58;100762.27;1743932;80;27157;-83
2021/10/05 10:44:38;;;;;;;14.73;8.78;;;;;;;18.65;66.30;100771.44;1771994;80;25836;-83
2021/10/05 10:47:15;;;;;;;13.40;9.50;;;;;;;18.72;67.57;100777.03;1683974;82;27543;-82
2021/10/05 10:50:01;;;;;;;14.05;8.15;;;;;;;18.78;65.89;100767.11;1712373;81;25380;-82
2021/10/05 10:52:32;;;;;;;16.52;8.90;;;;;;;18.79;64.91;100760.64;1741595;81;25670;-83
2021/10/05 10:55:01;;;;;;;14.58;7.75;;;;;;;18.80;65.17;100760.92;1767697;80;25955;-83
2021/10/05 10:57:37;;;;;;;16.42;8.15;;;;;;;18.75;64.81;100762.17;1717421;81;26589;-82
2021/10/05 11:00:32;;;;;;;15.38;8.68;;;;;;;18.68;65.08;100760.94;1719572;81;27443;-82
2021/10/05 11:03:03;;;;;;;13.13;8.68;;;;;;;18.62;65.85;100760.52;1738492;81;25739;-81
2021/10/05 11:05:34;;;;;;;16.73;8.13;;;;;;;18.57;65.18;100753.61;1724245;81;25789;-82
2021/10/05 11:08:11;;;;;;;15.78;7.95;;;;;;;18.57;65.32;100750.06;1697833;82;26472;-82
2021/10/05 11:10:39;;;;;;;13.32;7.95;;;;;;;18.63;65.96;100751.30;1714162;82;25893;-82
2021/10/05 11:13:08;;;;;;;16.62;8.05;;;;;;;18.73;66.04;100740.71;1726569;82;27577;-82
2021/10/05 11:15:40;;;;;;;13.10;7.97;;;;;;;18.79;65.42;100741.64;1756008;80;25815;-83
2021/10/05 11:18:14;;;;;;;13.70;8.48;;;;;;;18.81;64.18;100731.38;1715363;81;26815;-83
2021/10/05 11:20:51;;;;;;;16.20;8.28;;;;;;;18.78;64.46;100736.73;1700474;82;25925;-82